Time,TemperatureF,DewpointF,PressureIn,WindDirection,WindDirectionDegrees,WindSpeedMPH,WindSpeedGustMPH,Humidity,HourlyPrecipIn,Conditions,Clouds,dailyrainin,SoftwareType,DateUTC
2013-09-15 00:22:00,64.0,55.0,29.86,SSE,160,6.0,-999.0,72,-99.99,,,-99.99,,2013-09-15 05:22:00,
2013-09-15 00:42:00,64.0,55.0,29.85,SSE,160,5.0,-999.0,72,-99.99,,,-99.99,,2013-09-15 05:42:00,
2013-09-15 01:21:00,64.0,55.0,29.84,SSE,150,6.0,-999.0,72,-99.99,,,-99.99,,2013-09-15 06:21:00,
2013-09-15 01:42:00,64.0,57.0,29.84,South,170,5.0,-999.0,77,-99.99,,,-99.99,,2013-09-15 06:42:00,
2013-09-15 02:22:00,64.0,57.0,29.85,SSW,210,5.0,-999.0,77,-99.99,,,-99.99,,2013-09-15 07:22:00,
2013-09-15 02:42:00,64.0,57.0,29.85,SSW,210,6.0,-999.0,77,-99.99,,,-99.99,,2013-09-15 07:42:00,
2013-09-15 03:22:00,63.0,57.0,29.86,WSW,250,6.0,-999.0,82,-99.99,,,-99.99,,2013-09-15 08:22:00,
2013-09-15 03:43:00,63.0,57.0,29.87,West,260,7.0,-999.0,82,-99.99,,,-99.99,,2013-09-15 08:43:00,
2013-09-15 04:22:00,63.0,59.0,29.88,West,280,5.0,-999.0,88,-99.99,,,-99.99,,2013-09-15 09:22:00,
2013-09-15 04:43:00,63.0,61.0,29.89,WNW,290,5.0,-999.0,93,-99.99,,,-99.99,,2013-09-15 09:43:00,
2013-09-15 05:23:00,63.0,59.0,29.91,North,350,8.0,-999.0,88,-99.99,,,-99.99,,2013-09-15 10:23:00,
2013-09-15 05:43:00,63.0,57.0,29.92,North,350,8.0,-999.0,82,-99.99,,,-99.99,,2013-09-15 10:43:00,
2013-09-15 06:22:00,63.0,57.0,29.96,North,360,13.0,20.0,82,-99.99,,,-99.99,,2013-09-15 11:22:00,
2013-09-15 06:42:00,61.0,55.0,29.97,North,350,12.0,20.0,82,-99.99,,,-99.99,,2013-09-15 11:42:00,
2013-09-15 07:21:00,61.0,55.0,30.00,North,360,13.0,18.0,82,-99.99,,,-99.99,,2013-09-15 12:21:00,
2013-09-15 07:42:00,61.0,55.0,30.02,North,360,12.0,18.0,82,-99.99,,,-99.99,,2013-09-15 12:42:00,
2013-09-15 08:21:00,61.0,55.0,30.06,North,350,12.0,17.0,82,-99.99,,,-99.99,,2013-09-15 13:21:00,
2013-09-15 08:42:00,61.0,55.0,30.06,North,10,14.0,20.0,82,-99.99,,,-99.99,,2013-09-15 13:42:00,
2013-09-15 09:22:00,61.0,55.0,30.07,NNE,20,12.0,20.0,82,-99.99,,,-99.99,,2013-09-15 14:22:00,
2013-09-15 14:22:00,66.0,54.0,30.19,North,10,14.0,22.0,63,-99.99,,,-99.99,,2013-09-15 19:22:00,
2013-09-15 14:42:00,66.0,54.0,30.20,North,10,13.0,18.0,63,-99.99,,,-99.99,,2013-09-15 19:42:00,
2013-09-15 15:22:00,66.0,54.0,30.21,North,360,10.0,16.0,63,-99.99,,,-99.99,,2013-09-15 20:22:00,
2013-09-15 15:42:00,66.0,54.0,30.21,North,350,10.0,17.0,63,-99.99,,,-99.99,,2013-09-15 20:42:00,
2013-09-15 16:21:00,64.0,54.0,30.22,NNE,20,10.0,17.0,67,-99.99,,,-99.99,,2013-09-15 21:21:00,
2013-09-15 16:44:00,64.0,54.0,30.22,North,350,12.0,17.0,67,-99.99,,,-99.99,,2013-09-15 21:44:00,
2013-09-15 17:23:00,63.0,54.0,30.23,NNE,20,10.0,15.0,72,-99.99,,,-99.99,,2013-09-15 22:23:00,
2013-09-15 17:44:00,63.0,54.0,30.23,North,10,12.0,17.0,72,-99.99,,,-99.99,,2013-09-15 22:44:00,
2013-09-15 18:22:00,64.0,55.0,30.24,NNE,20,10.0,15.0,72,-99.99,,,-99.99,,2013-09-15 23:22:00,
2013-09-15 18:42:00,63.0,54.0,30.25,NNE,30,6.0,-999.0,72,-99.99,,,-99.99,,2013-09-15 23:42:00,
2013-09-15 19:22:00,63.0,55.0,30.26,NE,40,6.0,-999.0,77,-99.99,,,-99.99,,2013-09-16 00:22:00,
2013-09-15 19:42:00,63.0,55.0,30.26,North,0,0.0,-999.0,77,-99.99,,,-99.99,,2013-09-16 00:42:00,
2013-09-15 20:21:00,59.0,52.0,30.27,North,0,0.0,-999.0,76,-99.99,,,-99.99,,2013-09-16 01:21:00,
2013-09-15 20:42:00,55.0,52.0,30.27,North,0,0.0,-999.0,87,-99.99,,,-99.99,,2013-09-16 01:42:00,